AirNav   Everest Fuels
 
 775 users online  

2WN7 Planeacres Airport
Fisk, Wisconsin, USA

GOING TO FISK?


FAA INFORMATION EFFECTIVE 26 JANUARY 2023

Location

FAA Identifier: 2WN7
Lat/Long: 43-56-55.5000N 088-40-23.5000W
43-56.925000N 088-40.391667W
43.9487500,-88.6731944
(estimated)
Elevation: 844 ft. / 257 m (estimated)
Variation: 02W (2000)
From city: 1 mile S of FISK, WI
Time zone: UTC -6 (UTC -5 during Daylight Saving Time)
Zip code: 54904

Airport Operations

Airport use: Private use. Permission required prior to landing
Activation date: 08/2001
Control tower: no
ARTCC: CHICAGO CENTER
FSS: GREEN BAY FLIGHT SERVICE STATION
Attendance: UNATNDD
Wind indicator: yes
Segmented circle: no

Airport Communications

WX ASOS at OSH (5 nm NE): PHONE 920-426-1644
WX ASOS at FLD (13 nm SE): 134.0 (920-922-4444)
WX AWOS-3 at ATW (20 nm N): PHONE 920-832-2597

Nearby radio navigation aids

VOR radial/distance  VOR name  Freq  Var
OSHr242/5.6OSHKOSH VORTAC116.7502E
BJBr324/(39.6)WEST BEND VOR109.8001W

 
NDB name  Hdg/Dist  Freq  Var  ID
POBER315/6.739503WOS --- ...

Airport Services

Runway Information

Runway 18/36

Dimensions: 2200 x 66 ft. / 671 x 20 m
Surface: turf
RUNWAY 18  RUNWAY 36
Traffic pattern: rightleft
Displaced threshold: 400 ft.
DSPLCD THLD MKD WITH ORANGE CONES.
no
Obstructions: 50 ft. trees, 400 ft. from runwaynone

Airport Ownership and Management from official FAA records

Ownership: Privately-owned
Owner: LYLE M FORSGREN
5517 STATE ROAD 44
OSHKOSH, WI 54904
Phone 920-966-0410
Manager: LYLE M FORSGREN
5517 STATE ROAD 44
OSHKOSH, WI 54904
Phone 920-966-0410

Airport Operational Statistics

Aircraft based on the field: 1
Single engine airplanes: 1
    

Additional Remarks

394 FT TOWER 1.4 NM E OF RY & 247 FT TOWER 2.5 NM ESE OF RY.
FOR CD CTC CHICAGO ARTCC AT 630-906-8921.

Instrument Procedures

There are no published instrument procedures at 2WN7.

Some nearby airports with instrument procedures:

KOSH - Wittman Regional Airport (5 nm NE)
KFLD - Fond Du Lac County Airport (13 nm SE)
KATW - Appleton International Airport (20 nm N)
8D1 - New Holstein Municipal Airport (24 nm E)
KPCZ - Waupaca Municipal Airport (27 nm NW)
 
Loc | Ops | Rwys | IFR | FBO | Links
Com | Nav | Svcs | Stats | Notes
Area around 2WN7 (Planeacres Airport)
 
Road maps at: MapQuest Bing Google
 
Aerial photo
No photo
 
Sectional chart

 
Airport distance calculator
Flying to Planeacres Airport? Find the distance to fly.

From to 2WN7

Sunrise and sunset
Times for 27-Jan-2023
 Local
(UTC-6)
 Zulu
(UTC)
Morning civil twilight06:4712:47
Sunrise07:1813:18
Sunset16:5722:57
Evening civil twilight17:2823:28

Current date and time
Zulu (UTC)  27-Jan-2023 12:07:15
Local (UTC-6)  27-Jan-2023 06:07:15
 
METAR
KOSH 
5nm E 
271153Z 18018G28KT 10SM SCT120 M10/M13 A2968 RMK AO2 PK WND 19028/1146 SLP071 70003 T11001133 11094 21128 56044
KFLD 
14nm SE 
271153Z AUTO 19013KT 10SM FEW120 M08/M13 A2971 RMK AO2 SLP074 70001 T10831128 11072 21111 56040
KATW 
19nm N 
271145Z 16009KT 10SM SCT110 M11/M14 A2966
TAF
KATW 
19nm N 
271123Z 2712/2812 18010G17KT P6SM SCT020 OVC060 WS020/22040KT TEMPO 2712/2714 3SM -SN BR OVC020 FM271400 18016G22KT 2SM -SN BR SCT012 OVC020 WS020/22045KT TEMPO 2714/2718 3/4SM -SN BR OVC012 FM271900 24017G27KT P6SM OVC016 FM272300 28017G26KT P6SM BKN026 FM280200 28011G18KT P6SM BKN060
NOTAMs
Click for the latest NOTAMs
NOTAMs are issued by the DoD/FAA and will open in a separate window not controlled by AirNav.

 

 
 

Would you like to see your business listed on this page?

 If your business provides an interesting product or service to pilots, flight crews, aircraft, or users of the Planeacres Airport, you should consider listing it here.  To start the listing process, click on the button below
 
Add a business
 

Other Pages about Planeacres Airport

Update a link
 
Copyright © AirNav, LLC. All rights reserved. Privacy Policy  Contact